Pagrindinis puslapis
METAR-TAF:

METAR-TAF

Oro uostai :

Odesa, Ukraina

platuma: 46-26N, ilguma: 030-46E, Aukštis: 42 m

Dabartinis oras

Ataskaita buvo paskelbta 16 minutes, ne 08:30 UTC
Vėjas 12 kt iš Pietvakarių
Temperatūra 7°C
Drėgmė 57%
Slėgis 1025 hPa
Matomumas 10 km arba daugiau
nėra debesų žemiau 1500 m ir nėra kamuolinių lietaus debesų

METAR: UKOO 060830Z 22006MPS CAVOK 07/M01 Q1025 R16/090060 NOSIG

Laikas: 10:46 (08:46 UTC)

Prognozė

Ataskaita buvo paskelbta 3 valandos ir 41 minutes, ne 05:05 UTC
Prognozė galioja nuo 06 metu 06 UTC su 07 metu 06 UTC
Vėjas 6 kt iš Pietų/Pietvakarių su gūsio iki 16 kt
Matomumas: 6000 m
Išsisklaidę debesys ne aukštis 400 ft
Su prošvaistėmis ne aukštis 700 ft
Tapsmas
nuo 06 metu 08 UTC su 06 metu 09 UTC
Vėjas 14 kt iš Pietų/Pietvakarių su gūsio iki 27 kt
Tapsmas
nuo 06 metu 16 UTC su 06 metu 17 UTC
Matomumas: 2100 m
rūkana

TAF: UKOO 060505Z 0606/0706 20003G08MPS 6000 SCT004 BKN007 TX07/0612Z TNM01/0704Z BECMG 0608/0609 20007G14MPS BECMG 0616/0617 2100 BR

Orai ataskaitas ir orų prognozės (METAR, TAF).

turimą stotys yra geltonos ir raudonos taškus žemėlapyje.

Perkelti pele per norėdami pamatyti stoties vardą.

Tada spustelėkite, norėdami matyti oro stebėjimo ir prognozės.

Norėdami pakeisti žemėlapį: spustelėkite ant žalios mygtukų su juodo kryžiaus žemyn,; žalią mygtuką su brūkšneliu, jei norite nutolinti; arba žalių rodyklių gretimoms žemėlapius.


METAR-TAF: